الصفحة الرئيسية
METAR-TAF:

METAR-TAF

مطار :

أنتاناناريفو, مدغشقر

دائرة عرض: 18-48S, خط طول: 047-29E, ارتفاع: 1279 متر

مراقبة الطقس الحالي

تاريخ ووقت الإصدار 32 دقيقة قبل الساعة 10:30UTC
ريح 4 عقدةمن اتجاهات متغيرة
درجة الحرارة 29°درجة مئوية
الرطوبة 29%
ضغط 1018 hPa
الرؤية 10 كم أو أكثر
غيوم قليلة على ارتفاع 2000 قدم

METAR: FMMI 251030Z VRB04KT 9999 FEW020 29/09 Q1018 NOSIG

زمن: 14:02 (11:02 UTC)

توقعات

تاريخ ووقت الإصدار 6ساعات و 2 دقيقة قبل الساعة 05:00UTC
التوقعات صالحة من25 الساعة 06 UTC إلى 26 الساعة 12 UTC
ريح 10 عقدة من الشرق/الجنوب الشرقي
الرؤية 10 كم أو أكثر
غيوم متفرقة على ارتفاع 2000 قدم
أصبح
من 25 الساعة 10 UTC إلى 25 الساعة 13 UTC
غيوم متفرقة على ارتفاع 2000 قدم, مزنة ركامية.
أصبح
من 25 الساعة 20 UTC إلى 25 الساعة 22 UTC
غيوم متفرقة على ارتفاع 1700 قدم
نظرية الاحتمالات 30%
من 26 الساعة 00 UTC إلى 26 الساعة 05 UTC
الرؤية: 4500 متر
دخان

TAF: FMMI 250500Z 2506/2612 12010KT 9999 SCT020 BECMG 2510/2513 SCT020CB BECMG 2520/2522 SCT017 PROB30 2600/2605 4500 FU

أرصاد الطقس والتوقعات من أكثر من 4000 مطار (تقارير الطقس للمطار METAR والتنبؤ بالطقس بالمطارTAF).

المحطات المتاحة هي النقط الصفراء والحمراء على الخريطة.

حرك المؤشر فوق النقطة لمعرفة اسم المحطة.

ثم انقر لمعرفة أرصاد وتوقعات الطقس.

لتغيير الخارطة: اضغط على الأزرار الخضراء مع رمز الصليب الأسود للتكبير. على الزر الأخضر مع شرطة للتصغير، أو على الأسهم الخضراء للخرائط المجاورة.


METAR-TAF: